Portada
METAR-TAF:

METAR-TAF

Aeroports :

Aeroport de Palma - Son Sant Joan

Palma, Espanya

latitud: 39-33N, longitud: 002-44E, altitud: 4 m

Observació

L'informe es va fer fa 37 minuts, a les 22:30 UTC
Vent 1 kt amb direcció variable
Temperatura 5°C
Humitat 93%
Pressió 1016 hPa
Visibilitat 10 km o més
Escasses núvols a una alçada de 2000 ft
Núvols disperses a una alçada de 5000 ft

METAR: LEPA 192230Z VRB01KT 9999 FEW020 SCT050 05/04 Q1016 NOSIG

Hora: 00:07 (23:07 UTC)

Pronòstic

L'informe es va fer fa 6 hores i 7 minuts, a les 17:00 UTC
Pronòstic vàlid del 19 a les 18 UTC al 20 a les 18 UTC
Vent 5 kt del Nord/Nord-Est
Visibilitat 10 km o més
Escasses núvols a una alçada de 2000 ft
Evolucionant progressivament
l' 20 a les 10 UTC al 20 a les 12 UTC
Vent 7 kt del Sud-Oest

TAF: LEPA 191700Z 1918/2018 03005KT 9999 FEW020 TX16/2013Z TN05/2006Z BECMG 2010/2012 22007KT

Observacions i pronòstics meteorològics de més de 4000 aeroports (METAR i TAF).

Les estacions disponibles són els punts grocs i vermells al mapa.

Posi el ratolí al punt desitjat per veure el nom de l'estació.

Feu clic per veure les observacions i els pronòstics meteorològics.

Per canviar el mapa: feu clic els botons verds amb una creu de color negre per apropar; al botó verd amb un guió per allunyar la imatge; o en les fletxes verdes per a mapes adjacents.


METAR-TAF: